createdAt,value
2018-08-23T00:01:40.074Z,99.90
2018-08-23T00:04:12.959Z,99.90
2018-08-23T00:07:02.519Z,99.90
2018-08-23T00:09:36.789Z,99.90
2018-08-23T00:12:04.870Z,99.90
2018-08-23T00:14:37.561Z,99.90
2018-08-23T00:17:06.516Z,99.90
2018-08-23T00:19:46.332Z,99.90
2018-08-23T00:22:18.853Z,99.90
2018-08-23T00:24:47.017Z,99.90
2018-08-23T00:27:24.908Z,99.90
2018-08-23T00:29:53.180Z,99.90
2018-08-23T00:32:21.332Z,99.90
2018-08-23T00:34:52.206Z,99.90
2018-08-23T00:37:20.289Z,99.90
2018-08-23T00:39:55.397Z,99.90
2018-08-23T00:42:26.373Z,99.90
2018-08-23T00:45:05.944Z,99.90
2018-08-23T00:47:34.104Z,99.90
2018-08-23T00:50:05.174Z,99.90
2018-08-23T00:52:42.410Z,99.90
2018-08-23T00:55:30.927Z,99.90
2018-08-23T00:58:01.207Z,99.90
2018-08-23T01:00:29.434Z,99.90
2018-08-23T01:03:00.833Z,99.90
2018-08-23T01:05:37.608Z,99.90
2018-08-23T01:08:13.935Z,99.90
2018-08-23T01:10:42.436Z,99.90
2018-08-23T01:13:10.548Z,99.90
2018-08-23T01:15:42.357Z,99.90
2018-08-23T01:18:17.884Z,99.90
2018-08-23T01:20:49.967Z,99.90
2018-08-23T01:23:25.567Z,99.90
2018-08-23T01:25:57.970Z,99.90
2018-08-23T01:28:30.832Z,99.90
2018-08-23T01:31:07.996Z,99.90
2018-08-23T01:33:36.220Z,99.90
2018-08-23T01:36:07.052Z,99.90
2018-08-23T01:38:35.218Z,99.90
2018-08-23T01:41:13.992Z,99.90
2018-08-23T01:43:46.256Z,99.90
2018-08-23T01:46:18.570Z,99.90
2018-08-23T01:48:53.292Z,99.90
2018-08-23T01:51:21.451Z,99.90
2018-08-23T01:53:55.766Z,99.90
2018-08-23T01:56:28.961Z,99.90
2018-08-23T01:58:59.176Z,99.90
2018-08-23T02:01:27.279Z,99.90
2018-08-23T02:04:06.878Z,99.90
2018-08-23T02:06:37.905Z,99.90
2018-08-23T02:09:10.115Z,99.90
2018-08-23T02:11:38.350Z,99.90
2018-08-23T02:14:11.624Z,99.90
2018-08-23T02:16:53.799Z,99.90
2018-08-23T02:19:26.943Z,99.90
2018-08-23T02:21:55.190Z,99.90
2018-08-23T02:24:29.845Z,99.90
2018-08-23T02:26:58.392Z,99.90
2018-08-23T02:29:38.296Z,99.90
2018-08-23T02:32:12.715Z,99.90
2018-08-23T02:34:46.238Z,99.90
2018-08-23T02:37:20.850Z,99.90
2018-08-23T02:39:48.920Z,99.90
2018-08-23T02:42:28.870Z,99.90
2018-08-23T02:45:02.099Z,99.90
2018-08-23T02:47:31.689Z,99.90
2018-08-23T02:49:59.828Z,99.90
2018-08-23T02:55:07.698Z,99.90
2018-08-23T02:57:42.692Z,99.90
2018-08-23T03:00:11.145Z,99.90
2018-08-23T03:02:39.357Z,99.90
2018-08-23T03:05:14.883Z,99.90
2018-08-23T03:07:45.967Z,99.90
2018-08-23T03:10:17.195Z,99.90
2018-08-23T03:12:45.492Z,99.90
2018-08-23T03:15:16.584Z,99.90
2018-08-23T03:17:54.161Z,99.90
2018-08-23T03:20:25.141Z,99.90
2018-08-23T03:22:56.256Z,99.90
2018-08-23T03:25:30.860Z,99.90
2018-08-23T03:27:58.924Z,99.90
2018-08-23T03:30:33.547Z,99.90
2018-08-23T03:33:04.647Z,99.90
2018-08-23T03:35:37.708Z,99.90
2018-08-23T03:38:12.362Z,99.90
2018-08-23T03:40:42.516Z,99.90
2018-08-23T03:43:10.563Z,99.90
2018-08-23T03:45:41.830Z,99.90
2018-08-23T03:48:11.895Z,99.90
2018-08-23T03:50:48.299Z,99.90
2018-08-23T03:53:24.255Z,99.90
2018-08-23T03:56:14.443Z,99.90
2018-08-23T03:58:44.649Z,99.90
2018-08-23T04:01:16.747Z,99.90
2018-08-23T04:03:51.282Z,99.90
2018-08-23T04:06:34.495Z,99.90
2018-08-23T04:09:14.116Z,99.90
2018-08-23T04:11:47.199Z,99.90
2018-08-23T04:14:21.387Z,99.90
2018-08-23T04:16:49.718Z,99.90
2018-08-23T04:19:17.775Z,99.90
2018-08-23T04:21:48.704Z,99.90
2018-08-23T04:24:16.771Z,99.90
2018-08-23T04:26:53.319Z,99.90
2018-08-23T04:29:46.132Z,99.90
2018-08-23T04:32:25.860Z,99.90
2018-08-23T04:34:57.511Z,99.90
2018-08-23T04:37:30.989Z,99.90
2018-08-23T04:40:03.534Z,99.90
2018-08-23T04:42:31.743Z,99.90
2018-08-23T04:45:23.727Z,99.90
2018-08-23T04:48:07.943Z,99.90
2018-08-23T04:50:37.474Z,99.90
2018-08-23T04:53:05.816Z,99.90
2018-08-23T04:55:34.411Z,99.90
2018-08-23T04:58:05.111Z,99.90
2018-08-23T05:00:37.442Z,99.90
2018-08-23T05:03:15.811Z,99.90
2018-08-23T05:05:44.084Z,99.90
2018-08-23T05:08:12.159Z,99.90
2018-08-23T05:10:46.460Z,99.90
2018-08-23T05:13:14.758Z,99.90
2018-08-23T05:15:42.909Z,99.90
2018-08-23T05:18:11.019Z,99.90
2018-08-23T05:20:41.932Z,99.90
2018-08-23T05:23:10.061Z,99.90
2018-08-23T05:25:44.399Z,99.90
2018-08-23T05:28:26.415Z,99.90
2018-08-23T05:30:54.518Z,99.90
2018-08-23T05:33:28.250Z,99.90
2018-08-23T05:35:56.799Z,99.90
2018-08-23T05:38:24.952Z,99.90
2018-08-23T05:40:59.959Z,99.90
2018-08-23T05:43:30.104Z,99.90
2018-08-23T05:45:58.401Z,99.90
2018-08-23T05:48:29.423Z,99.90
2018-08-23T05:51:11.230Z,99.90
2018-08-23T05:53:46.066Z,99.90
2018-08-23T05:56:14.238Z,99.90
2018-08-23T05:58:48.598Z,99.90
2018-08-23T06:01:21.898Z,99.90
2018-08-23T06:03:55.829Z,99.90
2018-08-23T06:06:23.933Z,99.90
2018-08-23T06:08:59.765Z,99.90
2018-08-23T06:11:27.830Z,99.90
2018-08-23T06:13:58.300Z,99.90
2018-08-23T06:16:31.656Z,99.90
2018-08-23T06:19:06.096Z,99.90
2018-08-23T06:21:48.076Z,99.90
2018-08-23T06:24:16.194Z,99.90
2018-08-23T06:26:53.811Z,99.90
2018-08-23T06:29:33.101Z,99.90
2018-08-23T06:32:06.206Z,99.90
2018-08-23T06:34:47.787Z,99.90
2018-08-23T06:37:20.697Z,99.90
2018-08-23T06:39:48.953Z,99.90
2018-08-23T06:42:17.085Z,99.90
2018-08-23T06:44:53.541Z,99.90
2018-08-23T06:47:31.206Z,99.90
2018-08-23T06:50:03.643Z,99.90
2018-08-23T06:52:42.040Z,99.90
2018-08-23T06:55:14.700Z,99.90
2018-08-23T06:57:47.733Z,99.90
2018-08-23T07:00:24.623Z,99.90
2018-08-23T07:02:52.819Z,99.90
2018-08-23T07:05:26.263Z,99.90
2018-08-23T07:08:00.670Z,99.90
2018-08-23T07:10:41.176Z,99.90
2018-08-23T07:13:15.962Z,99.90
2018-08-23T07:15:52.279Z,99.90
2018-08-23T07:18:20.828Z,99.90
2018-08-23T07:20:48.854Z,99.90
2018-08-23T07:23:35.550Z,99.90
2018-08-23T07:26:08.371Z,99.90
2018-08-23T07:28:38.568Z,99.90
2018-08-23T07:31:06.763Z,99.90
2018-08-23T07:33:39.099Z,99.90
2018-08-23T07:36:20.941Z,99.90
2018-08-23T07:38:49.897Z,99.90
2018-08-23T07:41:22.192Z,99.90
2018-08-23T07:43:52.423Z,99.90
2018-08-23T07:46:20.682Z,99.90
2018-08-23T07:48:48.825Z,99.90
2018-08-23T07:51:24.056Z,99.90
2018-08-23T07:53:56.809Z,99.90
2018-08-23T07:56:29.962Z,99.90
2018-08-23T07:59:03.165Z,99.90
2018-08-23T08:01:34.080Z,99.90
2018-08-23T08:04:08.052Z,99.90
2018-08-23T08:06:40.512Z,99.90
2018-08-23T08:09:14.196Z,99.90
2018-08-23T08:11:51.296Z,99.90
2018-08-23T08:14:25.033Z,99.90
2018-08-23T08:17:18.644Z,99.90
2018-08-23T08:19:57.657Z,99.90
2018-08-23T08:22:33.636Z,99.90
2018-08-23T08:25:10.503Z,99.90
2018-08-23T08:27:50.500Z,99.90
2018-08-23T08:30:27.444Z,99.90
2018-08-23T08:33:00.077Z,99.90
2018-08-23T08:35:35.467Z,99.90
2018-08-23T08:38:08.493Z,99.90
2018-08-23T08:40:36.812Z,99.90
2018-08-23T08:43:05.625Z,99.90
2018-08-23T08:45:35.736Z,99.90
2018-08-23T08:48:17.529Z,99.90
2018-08-23T08:51:00.084Z,99.90
2018-08-23T08:53:35.901Z,99.90
2018-08-23T08:56:03.974Z,99.90
2018-08-23T08:58:42.194Z,99.90
2018-08-23T09:01:12.949Z,99.90
2018-08-23T09:03:47.339Z,99.90
2018-08-23T09:06:23.697Z,99.90
2018-08-23T09:08:56.770Z,99.90
2018-08-23T09:11:31.888Z,99.90
2018-08-23T09:14:05.198Z,99.90
2018-08-23T09:16:36.062Z,99.90
2018-08-23T09:19:09.301Z,99.90
2018-08-23T09:21:43.433Z,99.90
2018-08-23T09:24:24.321Z,99.90
2018-08-23T09:26:56.563Z,99.90
2018-08-23T09:29:39.959Z,99.90
2018-08-23T09:32:41.939Z,99.90
2018-08-23T09:35:11.102Z,99.90
2018-08-23T09:37:42.002Z,99.90
2018-08-23T09:40:12.955Z,99.90
2018-08-23T09:42:41.214Z,99.90
2018-08-23T09:45:16.314Z,99.90
2018-08-23T09:47:44.420Z,99.90
2018-08-23T09:50:12.635Z,99.90
2018-08-23T09:52:45.385Z,99.90
2018-08-23T09:55:17.606Z,99.90
2018-08-23T09:57:46.240Z,99.90
2018-08-23T10:00:18.860Z,99.90
2018-08-23T10:02:53.378Z,99.90
2018-08-23T10:05:30.359Z,99.90
2018-08-23T10:08:05.724Z,99.90
2018-08-23T10:10:39.262Z,99.90
2018-08-23T10:13:12.963Z,99.90
2018-08-23T10:16:47.222Z,99.90
2018-08-23T10:19:25.827Z,99.90
2018-08-23T10:22:03.677Z,99.90
2018-08-23T10:24:35.071Z,99.90
2018-08-23T10:27:03.529Z,99.90
2018-08-23T10:29:31.819Z,99.90
2018-08-23T10:31:59.905Z,99.90
2018-08-23T10:34:33.837Z,99.90
2018-08-23T10:37:01.844Z,99.90
2018-08-23T10:39:34.650Z,99.70
2018-08-23T10:42:02.819Z,99.40
2018-08-23T10:44:35.050Z,99.30
2018-08-23T10:47:09.642Z,99.10
2018-08-23T10:49:50.148Z,98.70
2018-08-23T10:52:29.982Z,98.40
2018-08-23T10:54:58.094Z,97.80
2018-08-23T10:57:37.797Z,97.50
2018-08-23T11:00:06.090Z,97.00
2018-08-23T11:02:40.562Z,96.60
2018-08-23T11:05:08.572Z,96.30
2018-08-23T11:07:51.938Z,96.10
2018-08-23T11:10:30.322Z,95.90
2018-08-23T11:13:06.000Z,95.30
2018-08-23T11:15:36.815Z,94.90
2018-08-23T11:18:10.673Z,94.50
2018-08-23T11:20:45.921Z,94.10
2018-08-23T11:23:23.595Z,93.30
2018-08-23T11:26:05.060Z,93.30
2018-08-23T11:28:38.598Z,93.40
2018-08-23T11:31:13.809Z,93.60
2018-08-23T11:33:47.839Z,93.10
2018-08-23T11:36:15.984Z,93.10
2018-08-23T11:38:49.308Z,93.40
2018-08-23T11:41:20.533Z,92.90
2018-08-23T11:43:49.029Z,92.70
2018-08-23T11:46:18.335Z,92.70
2018-08-23T11:48:46.997Z,92.50
2018-08-23T11:51:18.959Z,91.70
2018-08-23T11:53:54.347Z,91.70
2018-08-23T11:56:26.581Z,91.20
2018-08-23T11:59:06.343Z,91.00
2018-08-23T12:01:35.007Z,90.90
2018-08-23T12:04:03.151Z,90.60
2018-08-23T12:06:37.461Z,90.20
2018-08-23T12:09:11.983Z,89.80
2018-08-23T12:11:42.867Z,89.50
2018-08-23T12:14:11.138Z,88.70
2018-08-23T12:16:42.173Z,88.30
2018-08-23T12:19:12.410Z,87.70
2018-08-23T12:21:40.441Z,87.50
2018-08-23T12:24:12.815Z,86.70
2018-08-23T12:26:48.986Z,86.50
2018-08-23T12:29:17.253Z,85.80
2018-08-23T12:31:45.435Z,85.20
2018-08-23T12:34:23.863Z,85.40
2018-08-23T12:37:01.787Z,85.60
2018-08-23T12:39:35.404Z,84.90
2018-08-23T12:42:12.024Z,85.00
2018-08-23T12:44:58.423Z,83.70
2018-08-23T12:47:31.525Z,82.40
2018-08-23T12:50:06.009Z,81.60
2018-08-23T12:52:47.410Z,80.80
2018-08-23T12:55:17.744Z,79.80
2018-08-23T12:57:46.062Z,79.70
2018-08-23T13:00:14.093Z,79.90
2018-08-23T13:02:45.064Z,78.60
2018-08-23T13:05:13.423Z,79.40
2018-08-23T13:07:41.458Z,79.10
2018-08-23T13:10:14.580Z,79.10
2018-08-23T13:12:42.600Z,78.90
2018-08-23T13:15:16.873Z,78.40
2018-08-23T13:17:47.275Z,77.90
2018-08-23T13:20:18.583Z,77.40
2018-08-23T13:22:49.648Z,77.20
2018-08-23T13:25:22.069Z,77.10
2018-08-23T13:27:58.403Z,76.40
2018-08-23T13:30:30.900Z,76.60
2018-08-23T13:33:07.619Z,76.40
2018-08-23T13:35:35.768Z,76.50
2018-08-23T13:38:10.659Z,76.50
2018-08-23T13:40:38.714Z,76.20
2018-08-23T13:43:13.195Z,75.70
2018-08-23T13:45:46.410Z,75.40
2018-08-23T13:48:17.712Z,74.70
2018-08-23T13:50:48.776Z,74.20
2018-08-23T13:53:16.930Z,74.20
2018-08-23T13:55:49.088Z,74.20
2018-08-23T13:58:27.490Z,74.20
2018-08-23T14:00:57.711Z,74.00
2018-08-23T14:03:25.746Z,73.90
2018-08-23T14:05:58.147Z,73.70
2018-08-23T14:08:31.132Z,73.60
2018-08-23T14:10:59.270Z,73.80
2018-08-23T14:13:30.044Z,73.80
2018-08-23T14:16:03.538Z,73.30
2018-08-23T14:18:34.720Z,72.80
2018-08-23T14:21:09.858Z,73.10
2018-08-23T14:23:49.369Z,73.20
2018-08-23T14:26:21.798Z,73.10
2018-08-23T14:28:54.007Z,73.20
2018-08-23T14:31:22.292Z,73.30
2018-08-23T14:33:50.338Z,73.20
2018-08-23T14:36:22.545Z,73.10
2018-08-23T14:38:52.907Z,73.30
2018-08-23T14:41:20.901Z,73.70
2018-08-23T14:43:53.829Z,73.90
2018-08-23T14:46:27.599Z,74.00
2018-08-23T14:48:57.624Z,74.30
2018-08-23T14:51:25.725Z,74.30
2018-08-23T14:53:56.523Z,74.50
2018-08-23T14:56:30.199Z,73.90
2018-08-23T14:58:58.416Z,74.70
2018-08-23T15:01:30.681Z,74.60
2018-08-23T15:04:01.617Z,74.80
2018-08-23T15:06:29.688Z,75.10
2018-08-23T15:09:00.679Z,75.40
2018-08-23T15:11:30.830Z,75.50
2018-08-23T15:14:01.668Z,75.40
2018-08-23T15:16:29.708Z,75.30
2018-08-23T15:19:00.719Z,75.60
2018-08-23T15:21:30.726Z,75.80
2018-08-23T15:24:01.560Z,76.00
2018-08-23T15:26:29.909Z,76.10
2018-08-23T15:29:00.574Z,76.20
2018-08-23T15:31:28.695Z,76.40
2018-08-23T15:34:01.062Z,76.30
2018-08-23T15:36:35.642Z,76.40
2018-08-23T15:39:08.693Z,76.60
2018-08-23T15:41:39.454Z,77.00
2018-08-23T15:44:10.675Z,76.80
2018-08-23T15:46:48.509Z,76.80
2018-08-23T15:49:16.803Z,76.90
2018-08-23T15:51:53.356Z,77.00
2018-08-23T15:54:26.402Z,76.80
2018-08-23T15:56:57.695Z,77.20
2018-08-23T15:59:27.659Z,77.20
2018-08-23T16:02:02.204Z,77.50
2018-08-23T16:04:33.236Z,77.80
2018-08-23T16:07:05.525Z,77.60
2018-08-23T16:09:33.664Z,77.90
2018-08-23T16:12:01.791Z,77.80
2018-08-23T16:14:32.696Z,78.20
2018-08-23T16:17:06.089Z,78.20
2018-08-23T16:19:41.895Z,78.10
2018-08-23T16:22:12.025Z,78.60
2018-08-23T16:24:40.210Z,79.00
2018-08-23T16:27:14.690Z,79.20
2018-08-23T16:29:51.584Z,78.90
2018-08-23T16:32:25.427Z,78.70
2018-08-23T16:34:57.586Z,79.70
2018-08-23T16:37:25.883Z,79.10
2018-08-23T16:39:53.978Z,79.30
2018-08-23T16:42:36.652Z,79.60
2018-08-23T16:45:04.892Z,79.80
2018-08-23T16:47:41.655Z,80.00
2018-08-23T16:50:10.111Z,80.20
2018-08-23T16:52:38.147Z,80.70
2018-08-23T16:55:12.188Z,81.10
2018-08-23T16:57:40.245Z,81.40
2018-08-23T17:00:19.962Z,81.70
2018-08-23T17:02:48.101Z,81.80
2018-08-23T17:05:21.367Z,82.30
2018-08-23T17:07:54.934Z,82.40
2018-08-23T17:10:34.860Z,82.40
2018-08-23T17:13:03.285Z,82.80
2018-08-23T17:15:36.797Z,83.20
2018-08-23T17:18:08.046Z,83.40
2018-08-23T17:20:39.183Z,83.60
2018-08-23T17:23:12.628Z,84.00
2018-08-23T17:25:41.070Z,84.20
2018-08-23T17:28:12.350Z,84.40
2018-08-23T17:30:40.582Z,84.80
2018-08-23T17:33:08.643Z,85.20
2018-08-23T17:35:40.994Z,85.40
2018-08-23T17:38:13.639Z,85.70
2018-08-23T17:40:42.814Z,86.20
2018-08-23T17:43:15.187Z,86.70
2018-08-23T17:45:46.208Z,87.10
2018-08-23T17:48:26.082Z,87.40
2018-08-23T17:50:54.966Z,87.80
2018-08-23T17:53:28.115Z,88.20
2018-08-23T17:55:56.215Z,88.80
2018-08-23T17:58:24.757Z,89.40
2018-08-23T18:00:53.043Z,90.00
2018-08-23T18:03:26.519Z,90.10
2018-08-23T18:05:58.320Z,90.20
2018-08-23T18:08:29.571Z,90.40
2018-08-23T18:10:57.656Z,90.40
2018-08-23T18:13:28.809Z,90.60
2018-08-23T18:16:02.400Z,90.90
2018-08-23T18:18:32.440Z,91.30
2018-08-23T18:21:05.564Z,91.90
2018-08-23T18:23:36.451Z,92.20
2018-08-23T18:26:04.515Z,92.60
2018-08-23T18:28:35.770Z,93.00
2018-08-23T18:31:03.924Z,93.40
2018-08-23T18:33:32.029Z,93.80
2018-08-23T18:36:13.995Z,94.10
2018-08-23T18:38:42.177Z,94.40
2018-08-23T18:41:13.032Z,94.70
2018-08-23T18:43:41.047Z,95.00
2018-08-23T18:46:15.599Z,95.30
2018-08-23T18:48:48.756Z,95.50
2018-08-23T18:51:21.890Z,95.80
2018-08-23T18:53:49.986Z,96.00
2018-08-23T18:56:29.575Z,96.40
2018-08-23T18:58:57.943Z,96.70
2018-08-23T19:01:29.119Z,96.90
2018-08-23T19:04:05.307Z,97.20
2018-08-23T19:06:36.383Z,97.60
2018-08-23T19:09:08.035Z,97.70
2018-08-23T19:11:36.162Z,98.10
2018-08-23T19:14:07.189Z,98.60
2018-08-23T19:16:43.719Z,98.80
2018-08-23T19:19:14.892Z,99.20
2018-08-23T19:21:43.065Z,99.50
2018-08-23T19:24:24.866Z,99.80
2018-08-23T19:26:53.039Z,99.90
2018-08-23T19:29:33.373Z,99.90
2018-08-23T19:32:05.717Z,99.90
2018-08-23T19:34:38.670Z,99.90
2018-08-23T19:37:06.864Z,99.90
2018-08-23T19:39:35.096Z,99.90
2018-08-23T19:42:09.516Z,99.90
2018-08-23T19:44:47.444Z,99.90
2018-08-23T19:47:23.167Z,99.90
2018-08-23T19:49:55.976Z,99.90
2018-08-23T19:52:29.786Z,99.90
2018-08-23T19:54:58.246Z,99.90
2018-08-23T19:57:26.410Z,99.90
2018-08-23T19:59:59.307Z,99.90
2018-08-23T20:02:27.476Z,99.90
2018-08-23T20:04:59.825Z,99.90
2018-08-23T20:07:34.118Z,99.90
2018-08-23T20:10:05.192Z,99.90
2018-08-23T20:12:33.570Z,99.90
2018-08-23T20:15:01.567Z,99.90
2018-08-23T20:17:32.617Z,99.90
2018-08-23T20:20:00.689Z,99.90
2018-08-23T20:22:28.822Z,99.90
2018-08-23T20:25:07.173Z,99.90
2018-08-23T20:27:37.343Z,99.90
2018-08-23T20:30:05.926Z,99.90
2018-08-23T20:32:33.994Z,99.90
2018-08-23T20:35:09.569Z,99.90
2018-08-23T20:40:17.409Z,99.90
2018-08-23T20:42:51.819Z,99.90
2018-08-23T20:45:26.292Z,99.90
2018-08-23T20:47:56.824Z,99.90
2018-08-23T20:50:31.298Z,99.90
2018-08-23T20:53:04.102Z,99.90
2018-08-23T20:55:32.124Z,99.90
2018-08-23T20:58:03.195Z,99.90
2018-08-23T21:00:31.538Z,99.90
2018-08-23T21:02:59.633Z,99.90
2018-08-23T21:05:39.417Z,99.90
2018-08-23T21:08:07.530Z,99.90
2018-08-23T21:10:41.897Z,99.90
2018-08-23T21:13:16.178Z,99.90
2018-08-23T21:15:48.201Z,99.90
2018-08-23T21:18:16.337Z,99.90
2018-08-23T21:20:49.075Z,99.90
2018-08-23T21:23:17.206Z,99.90
2018-08-23T21:25:47.981Z,99.90
2018-08-23T21:28:20.323Z,99.90
2018-08-23T21:30:53.324Z,99.90
2018-08-23T21:33:23.330Z,99.90
2018-08-23T21:35:55.676Z,99.90
2018-08-23T21:38:26.547Z,99.90
2018-08-23T21:40:54.656Z,99.90
2018-08-23T21:43:28.830Z,99.90
2018-08-23T21:46:01.974Z,99.90
2018-08-23T21:48:30.318Z,99.90
2018-08-23T21:50:58.417Z,99.90
2018-08-23T21:53:31.608Z,99.90
2018-08-23T21:56:02.656Z,99.90
2018-08-23T21:58:30.712Z,99.90
2018-08-23T22:01:05.479Z,99.90
2018-08-23T22:03:37.046Z,99.90
2018-08-23T22:06:09.505Z,99.90
2018-08-23T22:08:41.844Z,99.90
2018-08-23T22:11:23.661Z,99.90
2018-08-23T22:13:51.703Z,99.90
2018-08-23T22:16:33.511Z,99.90
2018-08-23T22:19:01.579Z,99.90
2018-08-23T22:21:36.103Z,99.90
2018-08-23T22:24:04.737Z,99.90
2018-08-23T22:26:32.940Z,99.90
2018-08-23T22:29:08.394Z,99.90
2018-08-23T22:31:41.399Z,99.90
2018-08-23T22:34:09.666Z,99.90
2018-08-23T22:36:37.785Z,99.90
2018-08-23T22:39:09.887Z,99.90
2018-08-23T22:41:38.291Z,99.90
2018-08-23T22:44:06.633Z,99.90
2018-08-23T22:46:34.740Z,99.90
2018-08-23T22:49:05.538Z,99.90
2018-08-23T22:51:33.945Z,99.90
2018-08-23T22:54:05.281Z,99.90
2018-08-23T22:56:39.234Z,99.90
2018-08-23T22:59:07.625Z,99.90
2018-08-23T23:01:35.725Z,99.90
2018-08-23T23:04:12.258Z,99.90
2018-08-23T23:06:43.550Z,99.90
2018-08-23T23:09:18.193Z,99.90
2018-08-23T23:11:50.507Z,99.90
2018-08-23T23:14:21.506Z,99.90
2018-08-23T23:16:53.221Z,99.90
2018-08-23T23:19:33.005Z,99.90
2018-08-23T23:22:03.317Z,99.90
2018-08-23T23:24:41.347Z,99.90
2018-08-23T23:27:11.438Z,99.90
2018-08-23T23:29:39.484Z,99.90
2018-08-23T23:32:10.466Z,99.90
2018-08-23T23:34:38.517Z,99.90
2018-08-23T23:37:10.772Z,99.90
2018-08-23T23:39:40.878Z,99.90
2018-08-23T23:42:08.978Z,99.90
2018-08-23T23:44:40.210Z,99.90
2018-08-23T23:47:08.218Z,99.90
2018-08-23T23:49:44.766Z,99.90
2018-08-23T23:52:12.861Z,99.90
2018-08-23T23:54:54.628Z,99.90
2018-08-23T23:57:22.714Z,99.90
2018-08-23T23:59:52.665Z,99.90
